sensor_id;sensor_type;location;lat;lon;timestamp;temperature;humidity
7248;DHT22;3665;51.034;13.642;2023-07-29T00:00:26;18.50;99.90
7248;DHT22;3665;51.034;13.642;2023-07-29T00:05:14;18.50;99.90
7248;DHT22;3665;51.034;13.642;2023-07-29T00:10:01;18.40;99.90
7248;DHT22;3665;51.034;13.642;2023-07-29T00:14:49;18.40;99.90
7248;DHT22;3665;51.034;13.642;2023-07-29T00:19:51;18.30;99.90
7248;DHT22;3665;51.034;13.642;2023-07-29T00:24:58;18.20;99.90
7248;DHT22;3665;51.034;13.642;2023-07-29T00:29:44;18.00;99.90
7248;DHT22;3665;51.034;13.642;2023-07-29T00:34:32;17.90;99.90
7248;DHT22;3665;51.034;13.642;2023-07-29T00:39:21;17.90;99.90
7248;DHT22;3665;51.034;13.642;2023-07-29T00:44:25;17.80;99.90
7248;DHT22;3665;51.034;13.642;2023-07-29T00:49:12;17.90;1.00
7248;DHT22;3665;51.034;13.642;2023-07-29T00:54:08;17.90;1.00
7248;DHT22;3665;51.034;13.642;2023-07-29T00:59:06;17.90;1.00
7248;DHT22;3665;51.034;13.642;2023-07-29T01:04:09;17.80;1.00
7248;DHT22;3665;51.034;13.642;2023-07-29T01:09:02;17.70;1.00
7248;DHT22;3665;51.034;13.642;2023-07-29T01:14:11;17.70;1.00
7248;DHT22;3665;51.034;13.642;2023-07-29T01:19:06;17.70;1.00
7248;DHT22;3665;51.034;13.642;2023-07-29T01:23:58;17.70;1.00
7248;DHT22;3665;51.034;13.642;2023-07-29T01:29:12;17.80;1.00
7248;DHT22;3665;51.034;13.642;2023-07-29T01:34:06;17.70;1.00
7248;DHT22;3665;51.034;13.642;2023-07-29T01:39:06;17.70;1.00
7248;DHT22;3665;51.034;13.642;2023-07-29T01:43:52;17.60;1.00
7248;DHT22;3665;51.034;13.642;2023-07-29T01:48:41;17.50;1.00
7248;DHT22;3665;51.034;13.642;2023-07-29T01:53:28;17.50;1.00
7248;DHT22;3665;51.034;13.642;2023-07-29T01:58:18;17.40;20.30
7248;DHT22;3665;51.034;13.642;2023-07-29T02:03:06;17.30;1.00
7248;DHT22;3665;51.034;13.642;2023-07-29T02:08:08;17.20;1.00
7248;DHT22;3665;51.034;13.642;2023-07-29T02:12:58;17.10;1.00
7248;DHT22;3665;51.034;13.642;2023-07-29T02:18:02;17.00;1.00
7248;DHT22;3665;51.034;13.642;2023-07-29T02:23:06;17.10;99.90
7248;DHT22;3665;51.034;13.642;2023-07-29T02:27:53;17.10;1.00
7248;DHT22;3665;51.034;13.642;2023-07-29T02:32:40;17.10;1.00
7248;DHT22;3665;51.034;13.642;2023-07-29T02:37:53;17.10;7.70
7248;DHT22;3665;51.034;13.642;2023-07-29T02:43:07;17.10;1.00
7248;DHT22;3665;51.034;13.642;2023-07-29T02:47:51;17.10;1.00
7248;DHT22;3665;51.034;13.642;2023-07-29T02:52:49;17.10;99.90
7248;DHT22;3665;51.034;13.642;2023-07-29T02:57:43;17.10;1.00
7248;DHT22;3665;51.034;13.642;2023-07-29T03:02:32;17.00;1.00
7248;DHT22;3665;51.034;13.642;2023-07-29T03:07:20;17.10;1.00
7248;DHT22;3665;51.034;13.642;2023-07-29T03:12:10;17.20;1.00
7248;DHT22;3665;51.034;13.642;2023-07-29T03:16:57;17.30;1.00
7248;DHT22;3665;51.034;13.642;2023-07-29T03:21:44;17.30;1.00
7248;DHT22;3665;51.034;13.642;2023-07-29T03:26:34;17.40;1.00
7248;DHT22;3665;51.034;13.642;2023-07-29T03:31:23;17.50;1.00
7248;DHT22;3665;51.034;13.642;2023-07-29T03:36:28;17.70;1.00
7248;DHT22;3665;51.034;13.642;2023-07-29T03:41:12;17.70;99.90
7248;DHT22;3665;51.034;13.642;2023-07-29T03:46:01;17.90;99.90
7248;DHT22;3665;51.034;13.642;2023-07-29T03:51:06;17.90;99.90
7248;DHT22;3665;51.034;13.642;2023-07-29T03:55:52;18.00;99.90
7248;DHT22;3665;51.034;13.642;2023-07-29T04:00:40;18.10;99.90
7248;DHT22;3665;51.034;13.642;2023-07-29T04:05:28;18.20;99.90
7248;DHT22;3665;51.034;13.642;2023-07-29T04:10:18;18.30;99.90
7248;DHT22;3665;51.034;13.642;2023-07-29T04:15:06;18.40;86.20
7248;DHT22;3665;51.034;13.642;2023-07-29T04:20:09;18.50;65.80
7248;DHT22;3665;51.034;13.642;2023-07-29T04:24:55;18.60;36.00
7248;DHT22;3665;51.034;13.642;2023-07-29T04:29:51;18.70;10.90
7248;DHT22;3665;51.034;13.642;2023-07-29T04:34:50;18.70;15.60
7248;DHT22;3665;51.034;13.642;2023-07-29T04:39:35;18.70;10.90
7248;DHT22;3665;51.034;13.642;2023-07-29T04:44:24;18.80;1.00
7248;DHT22;3665;51.034;13.642;2023-07-29T04:49:28;18.80;3.50
7248;DHT22;3665;51.034;13.642;2023-07-29T05:00:09;18.90;1.00
7248;DHT22;3665;51.034;13.642;2023-07-29T05:05:15;19.00;1.00
7248;DHT22;3665;51.034;13.642;2023-07-29T05:10:00;19.00;1.00
7248;DHT22;3665;51.034;13.642;2023-07-29T05:14:47;19.10;1.00
7248;DHT22;3665;51.034;13.642;2023-07-29T05:19:36;19.30;1.00
7248;DHT22;3665;51.034;13.642;2023-07-29T05:24:32;19.60;1.00
7248;DHT22;3665;51.034;13.642;2023-07-29T05:29:28;19.80;1.00
7248;DHT22;3665;51.034;13.642;2023-07-29T05:34:17;19.70;1.00
7248;DHT22;3665;51.034;13.642;2023-07-29T05:39:06;19.60;1.00
7248;DHT22;3665;51.034;13.642;2023-07-29T05:44:11;19.70;1.00
7248;DHT22;3665;51.034;13.642;2023-07-29T05:49:00;19.90;1.00
7248;DHT22;3665;51.034;13.642;2023-07-29T05:53:45;20.00;1.00
7248;DHT22;3665;51.034;13.642;2023-07-29T05:58:39;20.10;1.00
7248;DHT22;3665;51.034;13.642;2023-07-29T06:03:53;20.20;1.00
7248;DHT22;3665;51.034;13.642;2023-07-29T06:08:41;20.40;1.00
7248;DHT22;3665;51.034;13.642;2023-07-29T06:13:28;20.90;1.00
7248;DHT22;3665;51.034;13.642;2023-07-29T06:18:15;21.50;1.00
7248;DHT22;3665;51.034;13.642;2023-07-29T06:23:08;22.10;1.00
7248;DHT22;3665;51.034;13.642;2023-07-29T06:27:52;22.60;1.00
7248;DHT22;3665;51.034;13.642;2023-07-29T06:32:45;22.70;1.00
7248;DHT22;3665;51.034;13.642;2023-07-29T06:37:30;23.30;1.00
7248;DHT22;3665;51.034;13.642;2023-07-29T06:42:17;23.80;1.00
7248;DHT22;3665;51.034;13.642;2023-07-29T06:47:04;24.20;1.00
7248;DHT22;3665;51.034;13.642;2023-07-29T06:51:54;23.90;1.00
7248;DHT22;3665;51.034;13.642;2023-07-29T06:56:41;23.40;1.00
7248;DHT22;3665;51.034;13.642;2023-07-29T07:01:28;23.70;1.00
7248;DHT22;3665;51.034;13.642;2023-07-29T07:06:15;24.20;1.00
7248;DHT22;3665;51.034;13.642;2023-07-29T07:11:08;24.60;1.00
7248;DHT22;3665;51.034;13.642;2023-07-29T07:15:54;25.00;1.00
7248;DHT22;3665;51.034;13.642;2023-07-29T07:20:40;24.80;1.00
7248;DHT22;3665;51.034;13.642;2023-07-29T07:25:29;25.50;1.00
7248;DHT22;3665;51.034;13.642;2023-07-29T07:30:15;25.60;1.00
7248;DHT22;3665;51.034;13.642;2023-07-29T07:35:06;25.60;1.00
7248;DHT22;3665;51.034;13.642;2023-07-29T07:40:07;25.90;1.00
7248;DHT22;3665;51.034;13.642;2023-07-29T07:44:56;25.80;1.00
7248;DHT22;3665;51.034;13.642;2023-07-29T07:49:49;25.60;1.00
7248;DHT22;3665;51.034;13.642;2023-07-29T07:54:33;25.00;1.00
7248;DHT22;3665;51.034;13.642;2023-07-29T07:59:22;24.60;1.00
7248;DHT22;3665;51.034;13.642;2023-07-29T08:04:07;24.50;1.00
7248;DHT22;3665;51.034;13.642;2023-07-29T08:09:00;24.40;1.00
7248;DHT22;3665;51.034;13.642;2023-07-29T08:13:44;24.40;1.00
7248;DHT22;3665;51.034;13.642;2023-07-29T08:23:55;25.10;1.00
7248;DHT22;3665;51.034;13.642;2023-07-29T08:28:45;25.00;1.00
7248;DHT22;3665;51.034;13.642;2023-07-29T08:33:28;25.60;1.00
7248;DHT22;3665;51.034;13.642;2023-07-29T08:38:18;25.40;1.00
7248;DHT22;3665;51.034;13.642;2023-07-29T08:43:07;25.00;1.00
7248;DHT22;3665;51.034;13.642;2023-07-29T08:47:57;25.90;1.00
7248;DHT22;3665;51.034;13.642;2023-07-29T08:52:56;26.30;1.00
7248;DHT22;3665;51.034;13.642;2023-07-29T08:57:43;25.90;1.00
7248;DHT22;3665;51.034;13.642;2023-07-29T09:02:31;26.10;1.00
7248;DHT22;3665;51.034;13.642;2023-07-29T09:07:25;26.20;1.00
7248;DHT22;3665;51.034;13.642;2023-07-29T09:12:09;26.30;1.00
7248;DHT22;3665;51.034;13.642;2023-07-29T09:16:57;26.00;1.00
7248;DHT22;3665;51.034;13.642;2023-07-29T09:21:46;25.50;1.00
7248;DHT22;3665;51.034;13.642;2023-07-29T09:26:33;25.20;1.00
7248;DHT22;3665;51.034;13.642;2023-07-29T09:31:23;25.50;1.00
7248;DHT22;3665;51.034;13.642;2023-07-29T09:36:09;26.30;1.00
7248;DHT22;3665;51.034;13.642;2023-07-29T09:40:58;26.60;1.00
7248;DHT22;3665;51.034;13.642;2023-07-29T09:45:46;26.40;1.00
7248;DHT22;3665;51.034;13.642;2023-07-29T09:50:33;26.50;1.00
7248;DHT22;3665;51.034;13.642;2023-07-29T09:55:21;26.20;1.00
7248;DHT22;3665;51.034;13.642;2023-07-29T10:00:11;25.80;1.00
7248;DHT22;3665;51.034;13.642;2023-07-29T10:04:56;24.60;1.00
7248;DHT22;3665;51.034;13.642;2023-07-29T10:09:44;24.00;1.00
7248;DHT22;3665;51.034;13.642;2023-07-29T10:14:32;23.60;1.00
7248;DHT22;3665;51.034;13.642;2023-07-29T10:24:41;23.90;1.00
7248;DHT22;3665;51.034;13.642;2023-07-29T10:34:51;25.30;1.00
7248;DHT22;3665;51.034;13.642;2023-07-29T10:39:41;26.10;1.00
7248;DHT22;3665;51.034;13.642;2023-07-29T10:44:49;26.10;1.00
7248;DHT22;3665;51.034;13.642;2023-07-29T10:49:52;26.30;1.00
7248;DHT22;3665;51.034;13.642;2023-07-29T10:54:48;25.90;1.00
7248;DHT22;3665;51.034;13.642;2023-07-29T10:59:35;25.80;1.00
7248;DHT22;3665;51.034;13.642;2023-07-29T11:04:25;26.20;1.00
7248;DHT22;3665;51.034;13.642;2023-07-29T11:09:52;26.70;1.00
7248;DHT22;3665;51.034;13.642;2023-07-29T11:14:40;26.60;1.00
7248;DHT22;3665;51.034;13.642;2023-07-29T11:19:38;26.30;1.00
7248;DHT22;3665;51.034;13.642;2023-07-29T11:24:23;25.40;1.00
7248;DHT22;3665;51.034;13.642;2023-07-29T11:34:35;23.10;1.00
7248;DHT22;3665;51.034;13.642;2023-07-29T11:50:19;23.40;1.00
7248;DHT22;3665;51.034;13.642;2023-07-29T11:55:24;23.40;1.00
7248;DHT22;3665;51.034;13.642;2023-07-29T12:00:09;23.40;1.00
7248;DHT22;3665;51.034;13.642;2023-07-29T12:10:18;23.30;1.00
7248;DHT22;3665;51.034;13.642;2023-07-29T12:15:04;23.20;1.00
7248;DHT22;3665;51.034;13.642;2023-07-29T12:19:54;23.60;1.00
7248;DHT22;3665;51.034;13.642;2023-07-29T12:24:40;23.70;1.00
7248;DHT22;3665;51.034;13.642;2023-07-29T12:29:52;23.70;1.00
7248;DHT22;3665;51.034;13.642;2023-07-29T12:34:48;24.20;1.00
7248;DHT22;3665;51.034;13.642;2023-07-29T12:39:40;24.80;1.00
7248;DHT22;3665;51.034;13.642;2023-07-29T12:44:25;24.70;1.00
7248;DHT22;3665;51.034;13.642;2023-07-29T12:49:15;24.80;1.00
7248;DHT22;3665;51.034;13.642;2023-07-29T12:54:02;25.20;1.00
7248;DHT22;3665;51.034;13.642;2023-07-29T12:59:07;25.00;1.00
7248;DHT22;3665;51.034;13.642;2023-07-29T13:03:54;25.40;1.00
7248;DHT22;3665;51.034;13.642;2023-07-29T13:08:42;25.20;1.00
7248;DHT22;3665;51.034;13.642;2023-07-29T13:13:26;25.10;1.00
7248;DHT22;3665;51.034;13.642;2023-07-29T13:18:26;25.20;1.00
7248;DHT22;3665;51.034;13.642;2023-07-29T13:23:11;25.30;1.00
7248;DHT22;3665;51.034;13.642;2023-07-29T13:28:15;25.20;1.00
7248;DHT22;3665;51.034;13.642;2023-07-29T13:33:00;25.10;1.00
7248;DHT22;3665;51.034;13.642;2023-07-29T13:37:48;25.90;1.00
7248;DHT22;3665;51.034;13.642;2023-07-29T13:42:37;25.80;1.00
7248;DHT22;3665;51.034;13.642;2023-07-29T13:47:27;25.60;1.00
7248;DHT22;3665;51.034;13.642;2023-07-29T13:52:13;25.90;1.00
7248;DHT22;3665;51.034;13.642;2023-07-29T13:57:01;26.10;1.00
7248;DHT22;3665;51.034;13.642;2023-07-29T14:01:48;26.60;1.00
7248;DHT22;3665;51.034;13.642;2023-07-29T14:06:37;26.20;1.00
7248;DHT22;3665;51.034;13.642;2023-07-29T14:11:26;25.80;1.00
7248;DHT22;3665;51.034;13.642;2023-07-29T14:16:16;25.90;1.00
7248;DHT22;3665;51.034;13.642;2023-07-29T14:21:02;26.10;1.00
7248;DHT22;3665;51.034;13.642;2023-07-29T14:26:10;26.60;1.00
7248;DHT22;3665;51.034;13.642;2023-07-29T14:30:54;26.80;1.00
7248;DHT22;3665;51.034;13.642;2023-07-29T14:35:41;27.10;1.00
7248;DHT22;3665;51.034;13.642;2023-07-29T14:40:28;27.00;1.00
7248;DHT22;3665;51.034;13.642;2023-07-29T14:45:34;26.90;1.00
7248;DHT22;3665;51.034;13.642;2023-07-29T14:50:21;27.00;1.00
7248;DHT22;3665;51.034;13.642;2023-07-29T14:55:09;27.20;1.00
7248;DHT22;3665;51.034;13.642;2023-07-29T14:59:59;27.20;1.00
7248;DHT22;3665;51.034;13.642;2023-07-29T15:04:47;27.00;1.00
7248;DHT22;3665;51.034;13.642;2023-07-29T15:09:34;26.90;1.00
7248;DHT22;3665;51.034;13.642;2023-07-29T15:14:21;26.90;1.00
7248;DHT22;3665;51.034;13.642;2023-07-29T15:19:09;26.90;1.00
7248;DHT22;3665;51.034;13.642;2023-07-29T15:23:58;26.70;1.00
7248;DHT22;3665;51.034;13.642;2023-07-29T15:28:46;26.80;1.00
7248;DHT22;3665;51.034;13.642;2023-07-29T15:33:34;27.00;1.00
7248;DHT22;3665;51.034;13.642;2023-07-29T15:38:23;26.80;1.00
7248;DHT22;3665;51.034;13.642;2023-07-29T15:43:11;26.60;1.00
7248;DHT22;3665;51.034;13.642;2023-07-29T15:47:57;26.80;1.00
7248;DHT22;3665;51.034;13.642;2023-07-29T15:52:45;26.70;1.00
7248;DHT22;3665;51.034;13.642;2023-07-29T15:57:38;26.30;1.00
7248;DHT22;3665;51.034;13.642;2023-07-29T16:02:23;25.70;1.00
7248;DHT22;3665;51.034;13.642;2023-07-29T16:07:11;25.30;1.00
7248;DHT22;3665;51.034;13.642;2023-07-29T16:11:57;24.90;1.00
7248;DHT22;3665;51.034;13.642;2023-07-29T16:16:46;24.80;1.00
7248;DHT22;3665;51.034;13.642;2023-07-29T16:21:36;24.60;1.00
7248;DHT22;3665;51.034;13.642;2023-07-29T16:26:23;24.40;1.00
7248;DHT22;3665;51.034;13.642;2023-07-29T16:31:09;24.00;1.00
7248;DHT22;3665;51.034;13.642;2023-07-29T16:35:57;23.80;1.00
7248;DHT22;3665;51.034;13.642;2023-07-29T16:46:22;22.40;1.00
7248;DHT22;3665;51.034;13.642;2023-07-29T16:51:09;21.10;1.00
7248;DHT22;3665;51.034;13.642;2023-07-29T16:55:58;20.40;1.00
7248;DHT22;3665;51.034;13.642;2023-07-29T17:00:44;19.60;1.00
7248;DHT22;3665;51.034;13.642;2023-07-29T17:05:33;18.80;1.00
7248;DHT22;3665;51.034;13.642;2023-07-29T17:10:18;18.30;1.00
7248;DHT22;3665;51.034;13.642;2023-07-29T17:15:10;17.90;1.00
7248;DHT22;3665;51.034;13.642;2023-07-29T17:19:59;17.80;1.00
7248;DHT22;3665;51.034;13.642;2023-07-29T17:24:46;17.60;99.90
7248;DHT22;3665;51.034;13.642;2023-07-29T17:29:36;17.40;99.90
7248;DHT22;3665;51.034;13.642;2023-07-29T17:34:23;17.30;1.00
7248;DHT22;3665;51.034;13.642;2023-07-29T17:39:09;17.10;99.90
7248;DHT22;3665;51.034;13.642;2023-07-29T17:44:16;17.10;17.30
7248;DHT22;3665;51.034;13.642;2023-07-29T17:49:02;17.20;99.90
7248;DHT22;3665;51.034;13.642;2023-07-29T17:53:49;17.20;99.90
7248;DHT22;3665;51.034;13.642;2023-07-29T17:58:39;17.20;99.90
7248;DHT22;3665;51.034;13.642;2023-07-29T18:03:50;17.40;1.00
7248;DHT22;3665;51.034;13.642;2023-07-29T18:08:45;17.30;99.90
7248;DHT22;3665;51.034;13.642;2023-07-29T18:13:38;17.40;1.00
7248;DHT22;3665;51.034;13.642;2023-07-29T18:18:56;17.40;99.90
7248;DHT22;3665;51.034;13.642;2023-07-29T18:23:41;17.30;99.90
7248;DHT22;3665;51.034;13.642;2023-07-29T18:28:49;17.30;99.90
7248;DHT22;3665;51.034;13.642;2023-07-29T18:33:33;17.30;1.00
7248;DHT22;3665;51.034;13.642;2023-07-29T18:38:44;17.20;99.90
7248;DHT22;3665;51.034;13.642;2023-07-29T18:43:45;17.10;1.00
7248;DHT22;3665;51.034;13.642;2023-07-29T18:48:50;17.10;1.00
7248;DHT22;3665;51.034;13.642;2023-07-29T18:53:35;16.90;99.90
7248;DHT22;3665;51.034;13.642;2023-07-29T18:58:21;16.80;1.00
7248;DHT22;3665;51.034;13.642;2023-07-29T19:03:14;16.80;1.00
7248;DHT22;3665;51.034;13.642;2023-07-29T19:08:01;16.70;99.90
7248;DHT22;3665;51.034;13.642;2023-07-29T19:13:01;16.60;99.90
7248;DHT22;3665;51.034;13.642;2023-07-29T19:17:48;16.60;1.00
7248;DHT22;3665;51.034;13.642;2023-07-29T19:22:37;16.40;86.20
7248;DHT22;3665;51.034;13.642;2023-07-29T19:27:25;16.40;1.00
7248;DHT22;3665;51.034;13.642;2023-07-29T19:32:36;16.40;1.00
7248;DHT22;3665;51.034;13.642;2023-07-29T19:37:36;16.30;51.00
7248;DHT22;3665;51.034;13.642;2023-07-29T19:42:21;16.20;1.00
7248;DHT22;3665;51.034;13.642;2023-07-29T19:47:11;16.00;99.90
7248;DHT22;3665;51.034;13.642;2023-07-29T19:52:00;16.00;1.00
7248;DHT22;3665;51.034;13.642;2023-07-29T19:56:44;15.90;1.00
7248;DHT22;3665;51.034;13.642;2023-07-29T20:01:34;15.90;1.00
7248;DHT22;3665;51.034;13.642;2023-07-29T20:06:38;15.90;99.90
7248;DHT22;3665;51.034;13.642;2023-07-29T20:11:41;15.90;99.90
7248;DHT22;3665;51.034;13.642;2023-07-29T20:16:31;15.90;99.90
7248;DHT22;3665;51.034;13.642;2023-07-29T20:21:18;15.90;99.90
7248;DHT22;3665;51.034;13.642;2023-07-29T20:26:06;15.80;99.90
7248;DHT22;3665;51.034;13.642;2023-07-29T20:30:57;15.80;99.90
7248;DHT22;3665;51.034;13.642;2023-07-29T20:35:42;15.80;99.90
7248;DHT22;3665;51.034;13.642;2023-07-29T20:40:29;15.70;99.90
7248;DHT22;3665;51.034;13.642;2023-07-29T20:45:21;15.70;99.90
7248;DHT22;3665;51.034;13.642;2023-07-29T20:50:08;15.70;99.90
7248;DHT22;3665;51.034;13.642;2023-07-29T20:54:52;15.80;99.90
7248;DHT22;3665;51.034;13.642;2023-07-29T20:59:46;15.90;99.90
7248;DHT22;3665;51.034;13.642;2023-07-29T21:04:30;15.90;99.90
7248;DHT22;3665;51.034;13.642;2023-07-29T21:09:18;15.90;99.90
7248;DHT22;3665;51.034;13.642;2023-07-29T21:14:05;15.80;99.90
7248;DHT22;3665;51.034;13.642;2023-07-29T21:18:57;15.80;99.90
7248;DHT22;3665;51.034;13.642;2023-07-29T21:23:42;15.80;99.90
7248;DHT22;3665;51.034;13.642;2023-07-29T21:34:28;15.80;99.90
7248;DHT22;3665;51.034;13.642;2023-07-29T21:39:26;15.80;99.90
7248;DHT22;3665;51.034;13.642;2023-07-29T21:44:14;15.80;99.90
7248;DHT22;3665;51.034;13.642;2023-07-29T21:49:01;15.80;99.90
7248;DHT22;3665;51.034;13.642;2023-07-29T21:54:11;15.90;99.90
7248;DHT22;3665;51.034;13.642;2023-07-29T21:58:55;15.90;99.90
7248;DHT22;3665;51.034;13.642;2023-07-29T22:03:39;15.80;99.90
7248;DHT22;3665;51.034;13.642;2023-07-29T22:08:22;15.80;99.90
7248;DHT22;3665;51.034;13.642;2023-07-29T22:13:15;15.90;99.90
7248;DHT22;3665;51.034;13.642;2023-07-29T22:17:59;15.80;99.90
7248;DHT22;3665;51.034;13.642;2023-07-29T22:22:47;15.90;99.90
7248;DHT22;3665;51.034;13.642;2023-07-29T22:27:35;16.00;99.90
7248;DHT22;3665;51.034;13.642;2023-07-29T22:38:03;15.80;99.90
7248;DHT22;3665;51.034;13.642;2023-07-29T22:42:47;15.70;1.00
7248;DHT22;3665;51.034;13.642;2023-07-29T22:47:40;15.70;1.00
7248;DHT22;3665;51.034;13.642;2023-07-29T22:52:24;15.60;1.00
7248;DHT22;3665;51.034;13.642;2023-07-29T23:02:47;15.60;46.40
7248;DHT22;3665;51.034;13.642;2023-07-29T23:07:40;15.60;1.00
7248;DHT22;3665;51.034;13.642;2023-07-29T23:12:23;15.60;1.00
7248;DHT22;3665;51.034;13.642;2023-07-29T23:17:13;15.60;28.50
7248;DHT22;3665;51.034;13.642;2023-07-29T23:22:00;15.70;1.00
7248;DHT22;3665;51.034;13.642;2023-07-29T23:26:47;15.70;99.90
7248;DHT22;3665;51.034;13.642;2023-07-29T23:31:34;15.70;99.90
7248;DHT22;3665;51.034;13.642;2023-07-29T23:36:23;15.70;99.90
7248;DHT22;3665;51.034;13.642;2023-07-29T23:41:11;15.80;99.90
7248;DHT22;3665;51.034;13.642;2023-07-29T23:46:01;15.80;99.90
7248;DHT22;3665;51.034;13.642;2023-07-29T23:50:48;15.70;99.90
7248;DHT22;3665;51.034;13.642;2023-07-29T23:55:34;15.70;99.90
